createdAt,value
2019-03-06T00:02:58.841Z,6.07
2019-03-06T00:08:01.933Z,6.50
2019-03-06T00:13:05.481Z,5.80
2019-03-06T00:18:08.890Z,6.67
2019-03-06T00:23:11.980Z,6.83
2019-03-06T00:28:15.712Z,7.73
2019-03-06T00:33:18.790Z,9.00
2019-03-06T00:38:22.538Z,8.17
2019-03-06T00:43:26.032Z,9.30
2019-03-06T00:48:29.448Z,8.17
2019-03-06T00:53:33.199Z,8.30
2019-03-06T00:58:36.619Z,10.10
2019-03-06T01:03:40.332Z,9.63
2019-03-06T01:08:43.750Z,11.13
2019-03-06T01:13:47.083Z,10.17
2019-03-06T01:18:50.891Z,10.10
2019-03-06T01:23:53.979Z,11.03
2019-03-06T01:28:57.721Z,11.90
2019-03-06T01:34:05.803Z,11.20
2019-03-06T01:39:11.222Z,13.53
2019-03-06T01:44:19.039Z,14.17
2019-03-06T01:49:22.455Z,13.20
2019-03-06T01:54:25.547Z,12.83
2019-03-06T01:59:28.971Z,13.40
2019-03-06T02:04:32.092Z,12.87
2019-03-06T02:09:35.190Z,14.23
2019-03-06T02:14:38.608Z,13.77
2019-03-06T02:19:42.105Z,13.93
2019-03-06T02:24:45.829Z,13.00
2019-03-06T02:29:49.267Z,15.13
2019-03-06T02:34:52.679Z,12.70
2019-03-06T02:39:55.851Z,14.73
2019-03-06T02:44:59.092Z,14.83
2019-03-06T02:50:02.185Z,14.33
2019-03-06T02:55:08.369Z,15.00
2019-03-06T03:00:20.067Z,13.80
2019-03-06T03:05:28.429Z,14.07
2019-03-06T03:10:31.839Z,12.50
2019-03-06T03:15:35.892Z,10.97
2019-03-06T03:20:39.569Z,11.40
2019-03-06T03:25:43.297Z,10.03
2019-03-06T03:30:46.724Z,11.27
2019-03-06T03:35:50.473Z,10.00
2019-03-06T03:40:53.979Z,10.47
2019-03-06T03:45:57.409Z,9.97
2019-03-06T03:51:00.935Z,9.90
2019-03-06T03:56:04.024Z,9.87
2019-03-06T04:01:07.789Z,13.10
2019-03-06T04:06:11.252Z,9.87
2019-03-06T04:11:14.330Z,11.53
2019-03-06T04:16:18.058Z,10.03
2019-03-06T04:21:21.738Z,11.40
2019-03-06T04:26:25.423Z,10.93
2019-03-06T04:31:29.114Z,13.37
2019-03-06T04:36:32.526Z,12.17
2019-03-06T04:41:36.254Z,13.83
2019-03-06T04:46:39.974Z,13.00
2019-03-06T04:51:43.471Z,14.70
2019-03-06T04:56:46.551Z,13.70
2019-03-06T05:01:50.223Z,12.67
2019-03-06T05:06:53.549Z,13.53
2019-03-06T05:11:56.954Z,16.40
2019-03-06T05:17:05.278Z,15.23
2019-03-06T05:22:08.598Z,16.50
2019-03-06T05:27:12.310Z,17.83
2019-03-06T05:32:33.649Z,16.57
2019-03-06T05:37:43.060Z,15.60
2019-03-06T05:42:47.029Z,20.13
2019-03-06T05:47:50.450Z,18.10
2019-03-06T05:52:54.137Z,15.20
2019-03-06T05:57:57.550Z,16.25
2019-03-06T06:03:01.338Z,16.83
2019-03-06T06:08:04.821Z,18.73
2019-03-06T06:13:08.611Z,16.33
2019-03-06T06:18:12.269Z,17.93
2019-03-06T06:23:33.589Z,14.23
2019-03-06T06:28:37.329Z,17.60
2019-03-06T06:33:40.698Z,16.27
2019-03-06T06:38:43.858Z,17.47
2019-03-06T06:43:47.279Z,13.77
2019-03-06T06:48:50.624Z,13.40
2019-03-06T06:53:55.583Z,16.63
2019-03-06T06:59:00.254Z,12.80
2019-03-06T07:04:45.977Z,12.50
2019-03-06T07:10:08.393Z,11.47
2019-03-06T07:15:19.760Z,12.43
2019-03-06T07:20:27.227Z,10.87
2019-03-06T07:25:41.098Z,9.10
2019-03-06T07:30:46.079Z,11.27
2019-03-06T07:36:10.967Z,6.13
2019-03-06T07:41:32.421Z,5.50
2019-03-06T07:46:37.699Z,4.67
2019-03-06T07:51:51.686Z,3.67
2019-03-06T07:56:56.999Z,3.73
2019-03-06T08:02:09.067Z,4.20
2019-03-06T08:07:15.747Z,6.53
2019-03-06T08:12:39.701Z,3.87
2019-03-06T08:17:44.415Z,5.23
2019-03-06T08:22:52.445Z,3.77
2019-03-06T08:27:55.906Z,3.43
2019-03-06T08:32:58.981Z,4.57
2019-03-06T08:38:02.317Z,2.70
2019-03-06T08:43:05.762Z,3.77
2019-03-06T08:48:10.827Z,5.03
2019-03-06T08:53:21.623Z,3.87
2019-03-06T08:58:32.406Z,4.57
2019-03-06T09:03:49.402Z,4.90
2019-03-06T09:09:03.759Z,4.77
2019-03-06T09:14:14.322Z,4.57
2019-03-06T09:19:28.244Z,3.70
2019-03-06T09:24:33.269Z,3.83
2019-03-06T09:29:44.759Z,4.70
2019-03-06T09:34:50.123Z,3.13
2019-03-06T09:40:06.134Z,3.77
2019-03-06T09:45:10.672Z,3.93
2019-03-06T09:50:32.414Z,6.17
2019-03-06T09:55:53.491Z,4.60
2019-03-06T10:01:10.181Z,4.53
2019-03-06T10:06:17.649Z,3.57
2019-03-06T10:11:22.936Z,4.13
2019-03-06T10:16:28.001Z,3.10
2019-03-06T10:21:31.322Z,4.60
2019-03-06T10:26:34.742Z,4.03
2019-03-06T10:31:38.694Z,4.67
2019-03-06T10:36:42.308Z,6.10
2019-03-06T10:41:45.813Z,4.05
2019-03-06T10:46:49.847Z,4.47
2019-03-06T10:51:52.988Z,3.97
2019-03-06T10:56:56.380Z,4.83
2019-03-06T11:01:59.515Z,3.90
2019-03-06T11:07:02.976Z,5.30
2019-03-06T11:12:07.241Z,3.87
2019-03-06T11:17:11.078Z,3.57
2019-03-06T11:22:14.884Z,4.60
2019-03-06T11:27:18.579Z,2.93
2019-03-06T11:32:22.059Z,4.90
2019-03-06T11:37:25.806Z,2.70
2019-03-06T11:42:29.071Z,6.57
2019-03-06T11:47:32.490Z,4.80
2019-03-06T11:52:36.365Z,5.65
2019-03-06T11:57:40.342Z,4.57
2019-03-06T12:02:43.500Z,6.97
2019-03-06T12:07:47.217Z,3.07
2019-03-06T12:12:51.044Z,2.20
2019-03-06T12:17:54.771Z,4.23
2019-03-06T12:22:58.253Z,3.00
2019-03-06T12:28:01.666Z,1.80
2019-03-06T12:33:05.434Z,2.90
2019-03-06T12:38:10.804Z,3.77
2019-03-06T12:43:14.093Z,2.90
2019-03-06T12:48:18.157Z,3.57
2019-03-06T12:53:21.703Z,3.27
2019-03-06T12:58:25.354Z,5.73
2019-03-06T13:03:28.765Z,5.00
2019-03-06T13:08:32.179Z,3.80
2019-03-06T13:13:36.119Z,2.83
2019-03-06T13:18:39.543Z,2.63
2019-03-06T13:23:42.957Z,4.50
2019-03-06T13:28:46.374Z,2.70
2019-03-06T13:33:57.522Z,3.50
2019-03-06T13:39:06.396Z,3.53
2019-03-06T13:44:06.355Z,3.83
2019-03-06T13:49:10.180Z,2.63
2019-03-06T13:54:13.900Z,3.13
2019-03-06T13:59:17.373Z,3.27
2019-03-06T14:04:20.817Z,3.10
2019-03-06T14:09:24.503Z,3.93
2019-03-06T14:14:27.707Z,4.97
2019-03-06T14:19:31.201Z,2.27
2019-03-06T14:24:34.613Z,5.33
2019-03-06T14:29:38.030Z,5.00
2019-03-06T14:34:41.827Z,6.17
2019-03-06T14:39:45.569Z,4.13
2019-03-06T14:44:49.079Z,3.27
2019-03-06T14:49:53.192Z,3.63
2019-03-06T14:54:58.648Z,4.13
2019-03-06T15:00:02.380Z,2.50
2019-03-06T15:05:05.702Z,3.80
2019-03-06T15:10:16.494Z,3.20
2019-03-06T15:15:22.934Z,5.17
2019-03-06T15:20:27.795Z,4.87
2019-03-06T15:25:31.542Z,4.53
2019-03-06T15:30:35.264Z,5.83
2019-03-06T15:35:39.922Z,5.30
2019-03-06T15:40:43.435Z,5.33
2019-03-06T15:45:47.031Z,5.20
2019-03-06T15:50:50.777Z,5.63
2019-03-06T15:55:53.926Z,6.07
2019-03-06T16:00:57.789Z,4.73
2019-03-06T16:06:01.343Z,4.90
2019-03-06T16:11:06.467Z,4.10
2019-03-06T16:16:10.318Z,6.33
2019-03-06T16:21:13.768Z,5.93
2019-03-06T16:26:17.533Z,4.43
2019-03-06T16:31:20.719Z,6.20
2019-03-06T16:36:24.175Z,4.57
2019-03-06T16:41:27.727Z,5.40
2019-03-06T16:46:31.161Z,4.60
2019-03-06T16:51:34.656Z,4.30
2019-03-06T16:56:38.134Z,7.33
2019-03-06T17:01:41.638Z,5.53
2019-03-06T17:06:44.815Z,5.53
2019-03-06T17:11:47.973Z,3.27
2019-03-06T17:16:51.707Z,3.63
2019-03-06T17:21:55.220Z,4.47
2019-03-06T17:26:58.414Z,3.60
2019-03-06T17:32:02.243Z,3.57
2019-03-06T17:37:05.823Z,7.13
2019-03-06T17:42:09.578Z,5.40
2019-03-06T17:47:13.003Z,4.43
2019-03-06T17:52:16.520Z,3.53
2019-03-06T17:57:19.691Z,7.03
2019-03-06T18:02:23.542Z,3.93
2019-03-06T18:07:27.368Z,5.50
2019-03-06T18:12:31.185Z,8.00
2019-03-06T18:17:34.346Z,8.50
2019-03-06T18:22:38.129Z,4.13
2019-03-06T18:27:41.378Z,4.33
2019-03-06T18:32:45.158Z,5.67
2019-03-06T18:37:48.654Z,5.73
2019-03-06T18:42:52.234Z,7.30
2019-03-06T18:47:55.930Z,3.50
2019-03-06T18:52:59.436Z,4.53
2019-03-06T18:58:02.853Z,6.00
2019-03-06T19:03:06.387Z,6.27
2019-03-06T19:08:10.304Z,5.90
2019-03-06T19:13:13.466Z,6.80
2019-03-06T19:18:17.222Z,5.20
2019-03-06T19:23:21.046Z,3.47
2019-03-06T19:28:24.478Z,4.93
2019-03-06T19:33:27.899Z,3.87
2019-03-06T19:38:31.073Z,4.47
2019-03-06T19:43:34.939Z,6.03
2019-03-06T19:48:38.427Z,5.27
2019-03-06T19:53:42.256Z,5.60
2019-03-06T19:58:45.418Z,4.03
2019-03-06T20:03:48.661Z,7.27
2019-03-06T20:08:52.220Z,5.53
2019-03-06T20:13:55.709Z,4.70
2019-03-06T20:18:58.886Z,4.83
2019-03-06T20:24:02.648Z,4.43
2019-03-06T20:29:06.194Z,4.67
2019-03-06T20:34:09.360Z,6.50
2019-03-06T20:39:12.830Z,6.73
2019-03-06T20:44:17.765Z,4.50
2019-03-06T20:49:21.542Z,6.73
2019-03-06T20:54:25.004Z,5.57
2019-03-06T20:59:28.286Z,5.30
2019-03-06T21:04:31.723Z,6.70
2019-03-06T21:09:34.961Z,4.10
2019-03-06T21:14:38.149Z,4.17
2019-03-06T21:19:41.646Z,4.53
2019-03-06T21:24:45.173Z,6.77
2019-03-06T21:29:49.017Z,6.30
2019-03-06T21:34:52.913Z,6.37
2019-03-06T21:39:56.739Z,5.03
2019-03-06T21:45:00.567Z,7.10
2019-03-06T21:50:05.648Z,5.00
2019-03-06T21:55:11.966Z,5.53
2019-03-06T22:00:19.714Z,6.10
2019-03-06T22:05:22.991Z,6.23
2019-03-06T22:10:26.417Z,8.63
2019-03-06T22:15:29.959Z,6.07
2019-03-06T22:20:33.783Z,5.42
2019-03-06T22:25:37.558Z,6.80
2019-03-06T22:30:41.103Z,5.90
2019-03-06T22:35:44.233Z,6.27
2019-03-06T22:40:47.954Z,4.07
2019-03-06T22:45:52.207Z,4.37
2019-03-06T22:50:55.955Z,4.13
2019-03-06T22:55:59.631Z,4.37
2019-03-06T23:01:06.123Z,4.93
2019-03-06T23:06:09.538Z,5.40
2019-03-06T23:11:12.609Z,4.77
2019-03-06T23:16:16.362Z,5.10
2019-03-06T23:21:19.702Z,5.07
2019-03-06T23:26:23.109Z,3.63
2019-03-06T23:31:26.525Z,3.57
2019-03-06T23:36:30.637Z,6.70
2019-03-06T23:41:34.049Z,4.70
2019-03-06T23:46:37.455Z,4.33
2019-03-06T23:51:42.826Z,5.53
2019-03-06T23:56:46.502Z,6.50
